Time;durP1;ratioP1;P1;durP2;ratioP2;P2;SDS_P1;SDS_P2;PMS_P1;PMS_P2;Temp;Humidity;BMP_temperature;BMP_pressure;BME280_temperature;BME280_humidity;BME280_pressure;Samples;Min_cycle;Max_cycle;Signal;HPM_P1;HPM_P2
2022/04/29 00:01:39;;;;;;;16.17;9.70;;;16.10;93.80;;;;;;4981899;28;20203;-78
2022/04/29 00:04:07;;;;;;;17.67;9.67;;;16.10;93.80;;;;;;4982194;28;20315;-77
2022/04/29 00:06:36;;;;;;;21.23;10.67;;;16.10;93.70;;;;;;4981251;28;20195;-78
2022/04/29 00:09:04;;;;;;;15.13;8.80;;;16.10;93.70;;;;;;4985089;28;20334;-78
2022/04/29 00:11:33;;;;;;;15.57;9.77;;;16.00;93.50;;;;;;4983159;28;20200;-77
2022/04/29 00:14:01;;;;;;;17.33;9.53;;;16.00;93.50;;;;;;4984785;28;20195;-77
2022/04/29 00:16:31;;;;;;;18.23;9.37;;;16.00;93.40;;;;;;4984440;28;20199;-77
2022/04/29 00:19:00;;;;;;;15.10;9.03;;;15.90;93.30;;;;;;4984215;28;20197;-77
2022/04/29 00:21:28;;;;;;;16.73;10.10;;;15.90;93.20;;;;;;4984407;28;20655;-78
2022/04/29 00:23:56;;;;;;;16.17;9.20;;;15.90;93.10;;;;;;4984840;28;20239;-80
2022/04/29 00:26:25;;;;;;;17.57;10.07;;;15.90;93.10;;;;;;4983618;28;20198;-78
2022/04/29 00:28:53;;;;;;;17.97;9.37;;;15.90;93.10;;;;;;4983325;28;20834;-79
2022/04/29 00:31:21;;;;;;;16.53;8.87;;;15.90;93.00;;;;;;4985460;28;20200;-76
2022/04/29 00:33:51;;;;;;;18.93;8.97;;;15.90;92.90;;;;;;4984354;28;20232;-77
2022/04/29 00:36:20;;;;;;;16.70;9.97;;;15.90;92.80;;;;;;4986417;28;20220;-77
2022/04/29 00:38:48;;;;;;;19.90;10.13;;;15.90;92.80;;;;;;4985223;28;20227;-77
2022/04/29 00:41:17;;;;;;;17.17;9.33;;;15.90;92.80;;;;;;4985521;28;20219;-77
2022/04/29 00:43:46;;;;;;;19.60;9.30;;;15.90;92.70;;;;;;4986268;28;20221;-78
2022/04/29 00:46:15;;;;;;;18.50;9.80;;;15.90;92.70;;;;;;4984849;28;20212;-78
2022/04/29 00:48:43;;;;;;;15.20;9.00;;;15.90;92.60;;;;;;4983151;28;20196;-76
2022/04/29 00:51:13;;;;;;;18.20;9.87;;;15.90;92.60;;;;;;4984623;28;20193;-78
2022/04/29 00:53:42;;;;;;;17.30;9.67;;;15.90;92.60;;;;;;4986191;28;20220;-78
2022/04/29 00:56:12;;;;;;;18.77;9.97;;;15.90;92.50;;;;;;4982166;28;20227;-77
2022/04/29 00:58:45;;;;;;;17.13;9.23;;;15.90;92.40;;;;;;4983734;28;20215;-79
2022/04/29 01:01:15;;;;;;;15.37;9.30;;;15.90;92.40;;;;;;4984930;28;20481;-79
2022/04/29 01:03:43;;;;;;;14.53;8.77;;;15.80;92.20;;;;;;4985060;28;20243;-75
2022/04/29 01:06:13;;;;;;;18.63;9.20;;;15.90;92.20;;;;;;4984618;28;20205;-81
2022/04/29 01:08:42;;;;;;;15.43;8.70;;;15.80;92.20;;;;;;4983737;28;20189;-79
2022/04/29 01:11:10;;;;;;;16.70;9.47;;;15.80;92.10;;;;;;4983881;28;20678;-77
2022/04/29 01:13:38;;;;;;;15.70;9.33;;;15.80;92.10;;;;;;4983475;28;20234;-78
2022/04/29 01:16:08;;;;;;;16.53;9.50;;;15.80;92.10;;;;;;4982323;28;20929;-77
2022/04/29 01:18:37;;;;;;;17.77;9.77;;;15.80;92.00;;;;;;4983147;28;20259;-78
2022/04/29 01:21:07;;;;;;;17.43;9.77;;;15.80;91.90;;;;;;4983075;28;20193;-77
2022/04/29 01:23:37;;;;;;;18.03;10.43;;;15.70;91.80;;;;;;4983869;28;20193;-77
2022/04/29 01:26:05;;;;;;;16.27;9.23;;;15.70;91.70;;;;;;4983767;28;20207;-77
2022/04/29 01:28:36;;;;;;;19.03;9.70;;;15.70;91.70;;;;;;4980957;28;20208;-78
2022/04/29 01:31:06;;;;;;;17.10;10.10;;;15.60;91.70;;;;;;4983037;28;20204;-76
2022/04/29 01:33:37;;;;;;;15.27;8.73;;;15.60;91.70;;;;;;4983973;28;20209;-78
2022/04/29 01:36:06;;;;;;;17.17;9.07;;;15.60;91.70;;;;;;4984250;28;20204;-76
2022/04/29 01:38:36;;;;;;;14.60;9.27;;;15.60;91.70;;;;;;4982859;28;20215;-77
2022/04/29 01:41:05;;;;;;;17.93;9.80;;;15.50;91.70;;;;;;4984811;28;20204;-76
2022/04/29 01:43:33;;;;;;;14.33;8.83;;;15.50;91.70;;;;;;4978995;28;20977;-77
2022/04/29 01:46:02;;;;;;;16.90;9.57;;;15.50;91.60;;;;;;4983082;28;20225;-76
2022/04/29 01:48:31;;;;;;;18.27;9.27;;;15.40;91.60;;;;;;4984264;28;20195;-76
2022/04/29 01:50:59;;;;;;;15.43;9.43;;;15.40;91.60;;;;;;4984463;28;20197;-76
2022/04/29 01:53:27;;;;;;;15.80;9.30;;;15.40;91.60;;;;;;4982959;28;20237;-77
2022/04/29 01:55:57;;;;;;;16.93;8.97;;;15.40;91.60;;;;;;4983805;28;20220;-78
2022/04/29 01:58:26;;;;;;;17.27;9.87;;;15.30;91.60;;;;;;4980218;28;20196;-77
2022/04/29 02:00:54;;;;;;;14.63;8.87;;;15.30;91.60;;;;;;4983472;28;20201;-76
2022/04/29 02:03:22;;;;;;;19.10;9.60;;;15.30;91.60;;;;;;4984261;28;20196;-77
2022/04/29 02:05:51;;;;;;;15.87;9.53;;;15.30;91.50;;;;;;4982990;28;20273;-76
2022/04/29 02:08:19;;;;;;;18.00;9.27;;;15.30;91.50;;;;;;4984547;28;20201;-79
2022/04/29 02:10:48;;;;;;;15.60;8.50;;;15.30;91.50;;;;;;4983659;28;20208;-77
2022/04/29 02:13:17;;;;;;;18.27;9.60;;;15.30;91.50;;;;;;4982252;28;20208;-76
2022/04/29 02:15:46;;;;;;;16.10;9.40;;;15.20;91.40;;;;;;4983690;28;21209;-77
2022/04/29 02:18:15;;;;;;;17.07;9.40;;;15.20;91.40;;;;;;4980110;28;20197;-78
2022/04/29 02:20:44;;;;;;;14.93;9.13;;;15.20;91.40;;;;;;4982067;28;20228;-77
2022/04/29 02:23:13;;;;;;;16.47;9.13;;;15.20;91.40;;;;;;4983564;28;20211;-76
2022/04/29 02:25:41;;;;;;;17.40;9.17;;;15.20;91.30;;;;;;4983095;28;20227;-76
2022/04/29 02:28:10;;;;;;;18.87;9.40;;;15.20;91.30;;;;;;4983639;28;21137;-76
2022/04/29 02:30:40;;;;;;;15.37;9.03;;;15.20;91.30;;;;;;4987713;28;20197;-77
2022/04/29 02:33:09;;;;;;;18.33;9.87;;;15.10;91.30;;;;;;4984097;28;20199;-77
2022/04/29 02:35:37;;;;;;;16.70;9.90;;;15.20;91.20;;;;;;4984603;28;20193;-76
2022/04/29 02:38:06;;;;;;;17.47;9.87;;;15.10;91.20;;;;;;4981739;28;20678;-75
2022/04/29 02:40:34;;;;;;;17.40;9.60;;;15.10;91.20;;;;;;4981983;28;20621;-77
2022/04/29 02:43:03;;;;;;;16.47;9.87;;;15.10;91.20;;;;;;4984712;28;20749;-77
2022/04/29 02:45:32;;;;;;;17.67;9.27;;;15.10;91.20;;;;;;4980796;28;20224;-76
2022/04/29 02:48:04;;;;;;;19.93;9.93;;;15.10;91.10;;;;;;4982131;28;20200;-78
2022/04/29 02:50:32;;;;;;;19.63;10.20;;;15.10;91.10;;;;;;4980114;28;20200;-76
2022/04/29 02:53:00;;;;;;;19.67;10.77;;;15.00;91.10;;;;;;4980925;28;20200;-77
2022/04/29 02:55:29;;;;;;;21.15;11.65;;;15.00;91.10;;;;;;4980198;28;20448;-77
2022/04/29 02:57:57;;;;;;;16.30;9.27;;;15.00;91.40;;;;;;4981636;28;20192;-77
2022/04/29 03:00:26;;;;;;;17.57;10.10;;;15.00;91.30;;;;;;4980558;28;20201;-76
2022/04/29 03:02:54;;;;;;;17.17;9.93;;;15.00;91.30;;;;;;4982524;28;20725;-77
2022/04/29 03:05:24;;;;;;;18.53;9.83;;;15.00;91.30;;;;;;4980977;28;20220;-76
2022/04/29 03:07:52;;;;;;;20.60;10.40;;;15.00;91.20;;;;;;4981231;28;20195;-78
2022/04/29 03:10:21;;;;;;;17.17;9.30;;;14.90;91.10;;;;;;4981417;28;20213;-76
2022/04/29 03:12:49;;;;;;;17.83;8.53;;;14.90;91.10;;;;;;4981656;28;20227;-76
2022/04/29 03:15:18;;;;;;;15.03;9.07;;;14.90;91.00;;;;;;4981839;28;20189;-77
2022/04/29 03:20:37;;;;;;;19.43;10.07;;;14.80;91.00;;;;;;4980733;28;20197;-76
2022/04/29 03:23:07;;;;;;;19.50;9.67;;;14.80;91.00;;;;;;4979767;28;20911;-77
2022/04/29 03:25:36;;;;;;;22.70;9.70;;;14.80;91.00;;;;;;4981511;28;20964;-77
2022/04/29 03:28:05;;;;;;;18.13;10.67;;;14.80;91.30;;;;;;4977917;28;20196;-77
2022/04/29 03:30:34;;;;;;;20.77;10.27;;;14.80;91.00;;;;;;4983480;28;20192;-77
2022/04/29 03:33:03;;;;;;;19.13;10.43;;;14.70;91.00;;;;;;4982143;28;20192;-78
2022/04/29 03:35:32;;;;;;;24.57;10.80;;;14.70;91.00;;;;;;4981859;28;20196;-77
2022/04/29 03:38:02;;;;;;;20.43;10.67;;;14.70;91.00;;;;;;4982490;28;20197;-79
2022/04/29 03:40:30;;;;;;;20.03;10.60;;;14.70;90.90;;;;;;4981861;28;20249;-77
2022/04/29 03:42:58;;;;;;;20.33;10.67;;;14.60;90.90;;;;;;4981631;28;20199;-76
2022/04/29 03:45:28;;;;;;;19.53;9.83;;;14.60;90.90;;;;;;4980239;28;20220;-77
2022/04/29 03:47:56;;;;;;;18.97;9.73;;;14.60;91.00;;;;;;4980916;28;20200;-76
2022/04/29 03:50:27;;;;;;;17.93;9.73;;;14.60;91.00;;;;;;4978189;28;20201;-76
2022/04/29 03:52:58;;;;;;;18.17;9.57;;;14.60;91.00;;;;;;4983104;28;20231;-76
2022/04/29 03:55:30;;;;;;;17.83;9.70;;;14.60;91.00;;;;;;4981252;28;20236;-76
2022/04/29 03:57:59;;;;;;;21.10;9.63;;;14.60;91.10;;;;;;4982620;28;20190;-78
2022/04/29 04:00:31;;;;;;;22.53;11.23;;;14.60;91.10;;;;;;4979466;28;20201;-76
2022/04/29 04:02:59;;;;;;;19.63;11.13;;;14.60;91.10;;;;;;4980905;28;20425;-77
2022/04/29 04:05:28;;;;;;;22.50;10.37;;;14.60;91.20;;;;;;4982423;28;20225;-76
2022/04/29 04:07:57;;;;;;;21.37;10.80;;;14.70;91.30;;;;;;4981654;28;20205;-76
2022/04/29 04:10:27;;;;;;;21.50;11.03;;;14.70;91.30;;;;;;4982409;28;21091;-77
2022/04/29 04:12:58;;;;;;;19.00;10.13;;;14.70;91.30;;;;;;4980525;28;20316;-76
2022/04/29 04:15:26;;;;;;;20.30;11.50;;;14.70;91.40;;;;;;4981524;28;20193;-77
2022/04/29 04:17:54;;;;;;;26.23;10.90;;;14.70;91.40;;;;;;4981290;28;20315;-76
2022/04/29 04:20:23;;;;;;;20.30;10.20;;;14.80;91.50;;;;;;4976263;28;20208;-78
2022/04/29 04:22:51;;;;;;;22.50;10.20;;;14.80;91.60;;;;;;4979807;28;20207;-77
2022/04/29 04:25:19;;;;;;;22.23;10.80;;;14.80;91.60;;;;;;4981616;28;20193;-77
2022/04/29 04:27:49;;;;;;;26.70;11.73;;;14.90;91.70;;;;;;4981098;28;20201;-75
2022/04/29 04:30:18;;;;;;;20.60;9.70;;;14.90;91.80;;;;;;4982375;28;20188;-76
2022/04/29 04:32:46;;;;;;;14.23;7.93;;;15.00;92.10;;;;;;4981680;28;20228;-76
2022/04/29 04:35:14;;;;;;;11.83;7.00;;;15.00;92.30;;;;;;4980612;28;20212;-75
2022/04/29 04:37:43;;;;;;;13.40;6.57;;;15.10;92.40;;;;;;4980873;28;20202;-76
2022/04/29 04:40:13;;;;;;;11.37;6.37;;;15.10;92.40;;;;;;4981987;28;20208;-75
2022/04/29 04:42:45;;;;;;;8.13;3.73;;;15.20;92.60;;;;;;4982601;28;20200;-77
2022/04/29 04:45:14;;;;;;;3.33;1.50;;;15.20;92.70;;;;;;4981351;28;21207;-76
2022/04/29 04:47:43;;;;;;;1.63;1.07;;;15.30;93.00;;;;;;4981586;28;20236;-77
2022/04/29 04:50:13;;;;;;;1.93;0.97;;;15.30;93.20;;;;;;4981459;28;20292;-76
2022/04/29 04:52:44;;;;;;;1.57;1.00;;;15.40;93.30;;;;;;4981804;28;20201;-76
2022/04/29 04:55:13;;;;;;;1.80;0.80;;;15.50;93.30;;;;;;4985127;28;20217;-76
2022/04/29 04:57:42;;;;;;;1.67;0.97;;;15.50;93.40;;;;;;4985330;28;20196;-76
2022/04/29 05:00:11;;;;;;;3.53;1.10;;;15.60;93.30;;;;;;4984672;28;20212;-76
2022/04/29 05:02:42;;;;;;;2.23;1.07;;;15.60;93.30;;;;;;4985110;28;20929;-76
2022/04/29 05:05:11;;;;;;;1.93;0.80;;;15.70;93.30;;;;;;4985257;28;20209;-75
2022/04/29 05:07:40;;;;;;;1.70;0.90;;;15.70;93.20;;;;;;4983733;28;20220;-75
2022/04/29 05:10:10;;;;;;;1.33;1.00;;;15.80;93.20;;;;;;4983965;28;20200;-74
2022/04/29 05:12:42;;;;;;;1.73;1.03;;;15.80;93.20;;;;;;4984147;28;20205;-75
2022/04/29 05:15:12;;;;;;;2.37;1.03;;;15.80;93.10;;;;;;4984645;28;20201;-75
2022/04/29 05:17:42;;;;;;;1.33;1.00;;;15.90;93.10;;;;;;4984372;28;20201;-75
2022/04/29 05:20:12;;;;;;;2.17;1.10;;;15.90;93.10;;;;;;4982514;28;20612;-76
2022/04/29 05:22:41;;;;;;;1.40;1.00;;;15.90;93.20;;;;;;4985484;28;20184;-74
2022/04/29 05:25:10;;;;;;;2.07;1.13;;;15.90;93.10;;;;;;4985558;28;20200;-77
2022/04/29 05:27:38;;;;;;;1.67;1.03;;;15.90;93.10;;;;;;4985584;28;20219;-76
2022/04/29 05:30:08;;;;;;;2.67;1.10;;;16.00;93.10;;;;;;4982117;28;20811;-76
2022/04/29 05:32:39;;;;;;;1.20;0.87;;;16.00;93.00;;;;;;4984343;28;20336;-76
2022/04/29 05:35:09;;;;;;;1.73;0.90;;;16.00;93.00;;;;;;4982994;28;20585;-75
2022/04/29 05:37:40;;;;;;;1.33;1.03;;;16.10;92.90;;;;;;4985439;28;20231;-76
2022/04/29 05:42:55;;;;;;;1.47;0.93;;;16.10;92.80;;;;;;4983520;28;20213;-76
2022/04/29 05:45:23;;;;;;;2.97;1.20;;;16.20;92.80;;;;;;4984598;28;20581;-75
2022/04/29 05:47:52;;;;;;;1.93;1.00;;;16.20;92.70;;;;;;4984998;28;21278;-76
2022/04/29 05:50:21;;;;;;;1.83;1.13;;;16.30;92.70;;;;;;4982418;28;20196;-75
2022/04/29 05:52:50;;;;;;;3.50;1.00;;;16.30;92.60;;;;;;4984780;28;20201;-76
2022/04/29 05:55:18;;;;;;;1.63;1.10;;;16.30;92.60;;;;;;4980935;28;20753;-76
2022/04/29 05:58:06;;;;;;;3.47;1.10;;;16.40;92.40;;;;;;4979255;28;20790;-76
2022/04/29 06:00:35;;;;;;;1.63;1.00;;;16.40;92.30;;;;;;4983490;28;20200;-78
2022/04/29 06:03:04;;;;;;;1.20;1.00;;;16.50;92.40;;;;;;4986206;28;20201;-77
2022/04/29 06:05:34;;;;;;;2.10;1.30;;;16.50;92.30;;;;;;4982184;28;20651;-77
2022/04/29 06:08:02;;;;;;;1.63;1.10;;;16.60;92.20;;;;;;4981995;28;20703;-77
2022/04/29 06:10:31;;;;;;;1.20;0.90;;;16.60;92.10;;;;;;4982992;28;20223;-76
2022/04/29 06:12:59;;;;;;;2.63;1.10;;;16.70;92.10;;;;;;4984819;28;20201;-76
2022/04/29 06:15:27;;;;;;;2.00;1.07;;;16.70;92.00;;;;;;4982686;28;20205;-76
2022/04/29 06:17:56;;;;;;;2.33;1.00;;;16.80;92.00;;;;;;4983297;28;20205;-76
2022/04/29 06:20:24;;;;;;;3.47;1.20;;;16.80;91.90;;;;;;4985431;28;20200;-76
2022/04/29 06:22:54;;;;;;;2.00;1.40;;;16.90;91.90;;;;;;4981460;28;20199;-76
2022/04/29 06:25:23;;;;;;;2.93;1.00;;;17.00;91.70;;;;;;4985222;28;20208;-75
2022/04/29 06:27:51;;;;;;;1.63;0.80;;;17.10;91.60;;;;;;4983262;28;20228;-77
2022/04/29 06:30:20;;;;;;;2.13;1.00;;;17.10;91.50;;;;;;4984514;28;20193;-77
2022/04/29 06:33:08;;;;;;;1.73;0.90;;;17.20;91.30;;;;;;4984534;28;20219;-75
2022/04/29 06:35:41;;;;;;;1.80;1.10;;;17.20;91.10;;;;;;4983874;28;20205;-76
2022/04/29 06:38:11;;;;;;;2.43;1.37;;;17.30;91.00;;;;;;4984132;28;20800;-75
2022/04/29 06:40:40;;;;;;;5.53;1.40;;;17.30;90.90;;;;;;4982880;28;20223;-75
2022/04/29 06:43:08;;;;;;;1.10;0.87;;;17.30;90.80;;;;;;4983760;28;20189;-77
2022/04/29 06:45:36;;;;;;;3.17;0.97;;;17.40;90.80;;;;;;4982223;28;20200;-78
2022/04/29 06:48:06;;;;;;;1.73;1.07;;;17.50;90.70;;;;;;4984395;28;20228;-76
2022/04/29 06:50:34;;;;;;;2.43;1.33;;;17.50;90.60;;;;;;4982056;28;20849;-77
2022/04/29 06:53:03;;;;;;;1.10;0.90;;;17.50;90.20;;;;;;4984340;28;20193;-75
2022/04/29 06:55:33;;;;;;;1.73;1.00;;;17.50;90.10;;;;;;4984119;28;20232;-76
2022/04/29 06:58:02;;;;;;;3.57;1.17;;;17.60;90.10;;;;;;4982885;28;20185;-77
2022/04/29 07:00:36;;;;;;;3.33;1.00;;;17.70;90.00;;;;;;4984804;28;20631;-77
2022/04/29 07:03:09;;;;;;;2.00;1.20;;;17.60;89.70;;;;;;4986929;28;20258;-78
2022/04/29 07:05:39;;;;;;;2.80;1.13;;;17.60;89.70;;;;;;4985448;28;20203;-73
2022/04/29 07:08:09;;;;;;;2.07;1.13;;;17.70;89.70;;;;;;4983204;28;20216;-73
2022/04/29 07:10:40;;;;;;;2.70;1.30;;;17.70;89.90;;;;;;4983340;28;20311;-74
2022/04/29 07:13:09;;;;;;;1.87;1.10;;;17.70;89.10;;;;;;4983985;28;20203;-73
2022/04/29 07:15:43;;;;;;;2.67;1.00;;;17.70;89.20;;;;;;4982581;28;20201;-75
2022/04/29 07:18:12;;;;;;;1.37;0.97;;;17.80;89.20;;;;;;4983498;28;20271;-74
2022/04/29 07:20:40;;;;;;;1.53;1.07;;;17.80;89.40;;;;;;4982513;28;20694;-74
2022/04/29 07:23:08;;;;;;;3.60;1.50;;;17.80;89.20;;;;;;4982170;28;20204;-74
2022/04/29 07:25:38;;;;;;;2.00;1.30;;;17.80;88.80;;;;;;4983387;28;20197;-74
2022/04/29 07:28:07;;;;;;;2.47;1.30;;;17.90;88.80;;;;;;4984555;28;20309;-74
2022/04/29 07:30:36;;;;;;;3.73;1.57;;;17.90;88.70;;;;;;4982947;28;20250;-73
2022/04/29 07:33:04;;;;;;;5.57;1.53;;;18.00;88.70;;;;;;4982568;28;20898;-75
2022/04/29 07:43:51;;;;;;;2.47;1.40;;;18.10;87.70;;;;;;4983741;28;20493;-74
2022/04/29 07:46:21;;;;;;;2.53;1.33;;;18.10;87.70;;;;;;4983736;28;20188;-74
2022/04/29 07:48:49;;;;;;;2.87;1.50;;;18.10;87.70;;;;;;4981656;28;20339;-73
2022/04/29 07:51:18;;;;;;;2.90;1.60;;;18.10;87.20;;;;;;4981491;28;20200;-74
2022/04/29 07:53:46;;;;;;;2.60;1.33;;;18.00;86.60;;;;;;4982941;28;20206;-73
2022/04/29 07:56:16;;;;;;;3.13;1.40;;;18.00;86.80;;;;;;4984772;28;20233;-73
2022/04/29 07:58:44;;;;;;;2.47;1.70;;;18.00;86.90;;;;;;4984296;28;20216;-72
2022/04/29 08:01:12;;;;;;;1.73;1.17;;;18.00;86.50;;;;;;4986301;28;20233;-74
2022/04/29 08:03:41;;;;;;;2.77;1.53;;;18.00;86.50;;;;;;4983924;28;20201;-73
2022/04/29 08:06:09;;;;;;;3.30;1.37;;;17.90;86.40;;;;;;4983788;28;20370;-75
2022/04/29 08:08:38;;;;;;;2.37;1.47;;;17.90;86.60;;;;;;4984076;28;20223;-72
2022/04/29 08:11:07;;;;;;;4.27;1.77;;;17.90;86.40;;;;;;4984388;28;20224;-73
2022/04/29 08:13:37;;;;;;;3.17;1.20;;;17.90;86.40;;;;;;4982601;28;20201;-72
2022/04/29 08:16:25;;;;;;;2.97;1.50;;;17.90;86.40;;;;;;4982839;28;20673;-73
2022/04/29 08:18:55;;;;;;;2.50;1.30;;;17.90;86.40;;;;;;4983083;28;20192;-73
2022/04/29 08:21:23;;;;;;;3.23;1.90;;;17.90;86.60;;;;;;4982546;28;20662;-74
2022/04/29 08:23:51;;;;;;;5.33;2.10;;;18.00;86.50;;;;;;4982338;28;20863;-74
2022/04/29 08:26:20;;;;;;;2.70;1.60;;;18.00;86.50;;;;;;4982955;28;20889;-72
2022/04/29 08:28:51;;;;;;;3.50;1.60;;;18.10;86.40;;;;;;4984123;28;20334;-74
2022/04/29 08:31:21;;;;;;;4.17;1.23;;;18.20;86.60;;;;;;4984785;28;20200;-73
2022/04/29 08:33:49;;;;;;;2.90;1.57;;;18.20;86.40;;;;;;4986422;28;20197;-73
2022/04/29 08:36:17;;;;;;;2.10;1.50;;;18.30;86.60;;;;;;4985338;28;20779;-72
2022/04/29 08:38:46;;;;;;;1.80;1.17;;;18.30;85.20;;;;;;4985060;28;20184;-73
2022/04/29 08:41:20;;;;;;;2.10;1.13;;;18.40;85.20;;;;;;4986054;28;20204;-74
2022/04/29 08:43:50;;;;;;;3.90;1.37;;;18.50;85.50;;;;;;4984442;28;20196;-73
2022/04/29 08:46:22;;;;;;;2.30;1.10;;;18.50;85.30;;;;;;4987167;28;20548;-73
2022/04/29 09:00:25;;;;;;;1.53;1.10;;;18.80;83.50;;;;;;4981091;28;20219;-78
2022/04/29 09:02:53;;;;;;;2.60;1.30;;;18.80;83.60;;;;;;4983897;28;20204;-76
2022/04/29 09:09:13;;;;;;;1.77;1.30;;;18.90;82.20;;;;;;4986364;28;20259;-76
2022/04/29 09:11:42;;;;;;;2.17;1.30;;;18.90;82.30;;;;;;4985481;28;20834;-76
2022/04/29 09:14:21;;;;;;;2.00;1.20;;;19.00;82.60;;;;;;4983996;28;20192;-77
2022/04/29 09:16:51;;;;;;;3.83;1.67;;;19.10;83.40;;;;;;4984356;28;21081;-76
2022/04/29 09:19:32;;;;;;;2.90;1.67;;;19.00;82.30;;;;;;4980110;28;20198;-77
2022/04/29 09:22:07;;;;;;;2.47;1.27;;;19.10;82.40;;;;;;4985475;28;20197;-77
2022/04/29 09:24:36;;;;;;;5.80;1.60;;;19.20;82.60;;;;;;4985899;28;20196;-78
2022/04/29 09:27:06;;;;;;;5.47;1.47;;;19.30;82.60;;;;;;4985160;28;20224;-77
2022/04/29 09:29:42;;;;;;;3.17;1.63;;;19.30;82.50;;;;;;4982874;28;20224;-77
2022/04/29 09:32:14;;;;;;;2.63;1.47;;;19.30;82.00;;;;;;4984051;28;20667;-76
2022/04/29 09:34:48;;;;;;;2.40;1.57;;;19.20;80.80;;;;;;4983956;28;20284;-76
2022/04/29 09:37:19;;;;;;;2.57;1.63;;;19.30;81.10;;;;;;4985905;28;20287;-77
2022/04/29 09:39:53;;;;;;;3.47;1.17;;;19.40;81.10;;;;;;4975376;28;20197;-74
2022/04/29 09:42:22;;;;;;;1.73;1.07;;;19.40;80.90;;;;;;4985035;28;20729;-78
2022/04/29 09:44:50;;;;;;;3.97;1.30;;;19.60;81.00;;;;;;4985160;28;20211;-77
2022/04/29 09:47:22;;;;;;;2.57;1.50;;;19.60;81.00;;;;;;4983564;28;20557;-78
2022/04/29 09:49:54;;;;;;;1.73;1.23;;;19.70;80.90;;;;;;4985796;28;20263;-77
2022/04/29 09:52:24;;;;;;;2.85;1.40;;;19.70;80.30;;;;;;4984104;28;20200;-75
2022/04/29 09:54:52;;;;;;;1.73;1.10;;;19.70;80.30;;;;;;4986342;28;22231;-78
2022/04/29 09:57:23;;;;;;;2.53;1.47;;;19.80;80.20;;;;;;4985439;28;20201;-76
2022/04/29 10:49:51;;;;;;;1.60;1.02;;;21.00;76.40;;;;;;4942665;29;20755;-75
2022/04/29 11:00:00;;;;;;;2.35;1.30;;;21.10;73.20;;;;;;4942281;29;20253;-75
2022/04/29 11:02:29;;;;;;;2.38;1.02;;;21.00;72.60;;;;;;4930626;28;20187;-77
